Saunderstown, Rhode Island
Current Conditions -  °F | °C
As of 6:53 PM on Friday 28 Nov 2014 (Local Time) from KUUU Reporting Station
Clear Clear  
Wind Chill: 22°   Ceiling: Unl
Heat Index: 32°   Visibility: 10mi
Dew Point: 16°   Wind: 15mph
Humidity: 52%   Direction: 310°NW
Pressure: 30.17"   Gusts: 22mph
Location:  41.51°N, 71.42°W
Report Text: KUUU 282353Z AUTO 31013G19KT 10SM CLR 00/M09 A3017 RMK AO2 SLP215 T00001089 10039 20000 51026
Loading
Personal Weather Stations






























Interactive Weather Map New forecast layout! Learn more

10-Day Weather Forecast

Advertisements
Track Severe Weather on mobile